createdAt,value
2022-11-08T00:00:05.439Z,12.84
2022-11-08T00:01:05.419Z,12.84
2022-11-08T00:02:05.688Z,12.87
2022-11-08T00:03:05.467Z,12.82
2022-11-08T00:04:05.396Z,12.82
2022-11-08T00:05:05.376Z,12.85
2022-11-08T00:06:05.371Z,12.82
2022-11-08T00:07:05.365Z,12.87
2022-11-08T00:08:05.342Z,12.85
2022-11-08T00:09:05.332Z,12.81
2022-11-08T00:10:05.322Z,12.78
2022-11-08T00:11:05.307Z,12.85
2022-11-08T00:12:05.312Z,12.84
2022-11-08T00:13:05.287Z,12.88
2022-11-08T00:14:05.278Z,12.93
2022-11-08T00:15:05.273Z,12.81
2022-11-08T00:16:05.255Z,12.81
2022-11-08T00:17:05.258Z,12.82
2022-11-08T00:18:05.252Z,12.78
2022-11-08T00:19:05.224Z,12.77
2022-11-08T00:20:05.212Z,12.71
2022-11-08T00:21:05.200Z,12.79
2022-11-08T00:22:05.214Z,12.69
2022-11-08T00:23:05.178Z,12.81
2022-11-08T00:24:05.171Z,12.69
2022-11-08T00:25:05.157Z,12.69
2022-11-08T00:26:05.152Z,12.69
2022-11-08T00:27:05.150Z,12.66
2022-11-08T00:28:05.130Z,12.69
2022-11-08T00:29:05.119Z,12.66
2022-11-08T00:30:05.117Z,12.66
2022-11-08T00:31:05.093Z,12.70
2022-11-08T00:32:05.095Z,12.67
2022-11-08T00:33:05.073Z,12.69
2022-11-08T00:34:05.079Z,12.66
2022-11-08T00:35:05.048Z,12.67
2022-11-08T00:36:05.038Z,12.64
2022-11-08T00:37:05.075Z,12.63
2022-11-08T00:38:05.017Z,12.63
2022-11-08T00:39:05.007Z,12.54
2022-11-08T00:40:05.024Z,12.63
2022-11-08T00:41:04.985Z,12.59
2022-11-08T00:42:04.983Z,12.56
2022-11-08T00:43:04.966Z,12.60
2022-11-08T00:44:04.958Z,12.57
2022-11-08T00:45:04.945Z,12.56
2022-11-08T00:46:04.989Z,12.56
2022-11-08T00:47:04.936Z,12.56
2022-11-08T00:48:04.956Z,12.59
2022-11-08T00:49:04.907Z,12.63
2022-11-08T00:50:04.909Z,12.54
2022-11-08T00:51:04.876Z,12.64
2022-11-08T00:52:04.883Z,12.59
2022-11-08T00:53:04.853Z,12.49
2022-11-08T00:54:04.845Z,12.49
2022-11-08T00:55:04.832Z,12.51
2022-11-08T00:56:04.826Z,12.48
2022-11-08T00:57:04.825Z,12.48
2022-11-08T00:58:04.800Z,12.48
2022-11-08T00:59:04.791Z,12.45
2022-11-08T01:00:04.787Z,12.44
2022-11-08T01:01:04.827Z,12.41
2022-11-08T01:03:14.770Z,12.31
2022-11-08T01:04:14.628Z,12.39
2022-11-08T01:05:14.635Z,12.42
2022-11-08T01:06:14.607Z,12.44
2022-11-08T01:07:14.607Z,12.46
2022-11-08T01:08:14.835Z,12.49
2022-11-08T01:09:14.576Z,12.38
2022-11-08T01:10:14.577Z,12.39
2022-11-08T01:11:14.555Z,12.34
2022-11-08T01:12:14.553Z,12.38
2022-11-08T01:13:14.534Z,12.34
2022-11-08T01:14:14.520Z,12.38
2022-11-08T01:15:14.562Z,12.41
2022-11-08T01:16:14.497Z,12.41
2022-11-08T01:17:14.501Z,12.41
2022-11-08T01:18:14.837Z,12.34
2022-11-08T01:19:14.481Z,12.41
2022-11-08T01:20:14.468Z,12.38
2022-11-08T01:21:14.462Z,12.30
2022-11-08T01:22:14.446Z,12.37
2022-11-08T01:23:14.426Z,12.29
2022-11-08T01:24:14.416Z,12.38
2022-11-08T01:25:14.402Z,12.34
2022-11-08T01:26:14.391Z,12.34
2022-11-08T01:27:14.394Z,12.41
2022-11-08T01:28:14.664Z,12.26
2022-11-08T01:29:14.358Z,12.37
2022-11-08T01:30:14.348Z,12.33
2022-11-08T01:31:14.347Z,12.27
2022-11-08T01:32:14.352Z,12.34
2022-11-08T01:33:14.350Z,12.30
2022-11-08T01:34:14.324Z,12.29
2022-11-08T01:35:14.298Z,12.34
2022-11-08T01:36:14.287Z,12.37
2022-11-08T01:37:14.330Z,12.39
2022-11-08T01:38:14.319Z,12.37
2022-11-08T01:39:14.255Z,12.30
2022-11-08T01:40:14.263Z,12.37
2022-11-08T01:41:14.232Z,12.26
2022-11-08T01:42:14.237Z,12.29
2022-11-08T01:43:14.231Z,12.24
2022-11-08T01:44:14.209Z,12.31
2022-11-08T01:45:14.205Z,12.21
2022-11-08T01:46:14.183Z,12.29
2022-11-08T01:47:14.179Z,12.30
2022-11-08T01:48:14.399Z,12.29
2022-11-08T01:49:14.150Z,12.24
2022-11-08T01:50:14.133Z,12.30
2022-11-08T01:51:14.128Z,12.31
2022-11-08T01:52:14.135Z,12.23
2022-11-08T01:53:14.118Z,12.29
2022-11-08T01:54:14.151Z,12.31
2022-11-08T01:55:14.079Z,12.26
2022-11-08T01:56:14.073Z,12.30
2022-11-08T01:57:14.072Z,12.31
2022-11-08T01:58:14.135Z,12.33
2022-11-08T01:59:14.063Z,12.27
2022-11-08T02:00:14.200Z,12.37
2022-11-08T02:01:14.077Z,12.37
2022-11-08T02:02:14.045Z,12.39
2022-11-08T02:03:13.995Z,12.41
2022-11-08T02:04:13.983Z,12.38
2022-11-08T02:05:13.979Z,12.37
2022-11-08T02:06:13.959Z,12.38
2022-11-08T02:07:14.026Z,12.31
2022-11-08T02:08:13.940Z,12.41
2022-11-08T02:09:13.951Z,12.39
2022-11-08T02:10:13.920Z,12.37
2022-11-08T02:11:13.905Z,12.46
2022-11-08T02:12:13.907Z,12.39
2022-11-08T02:13:15.031Z,12.39
2022-11-08T02:14:13.874Z,12.46
2022-11-08T02:15:13.865Z,12.33
2022-11-08T02:16:13.855Z,12.45
2022-11-08T02:17:13.856Z,12.45
2022-11-08T02:18:13.835Z,12.44
2022-11-08T02:19:13.818Z,12.44
2022-11-08T02:20:13.815Z,12.45
2022-11-08T02:21:13.800Z,12.44
2022-11-08T02:22:13.805Z,12.45
2022-11-08T02:23:13.776Z,12.37
2022-11-08T02:24:13.773Z,12.45
2022-11-08T02:25:13.772Z,12.34
2022-11-08T02:26:13.750Z,12.44
2022-11-08T02:27:13.752Z,12.38
2022-11-08T02:28:13.722Z,12.38
2022-11-08T02:29:13.726Z,12.38
2022-11-08T02:30:13.731Z,12.34
2022-11-08T02:31:13.695Z,12.39
2022-11-08T02:32:13.690Z,12.42
2022-11-08T02:33:13.673Z,12.41
2022-11-08T02:34:13.657Z,12.42
2022-11-08T02:35:13.648Z,12.45
2022-11-08T02:36:13.635Z,12.41
2022-11-08T02:37:13.642Z,12.44
2022-11-08T02:38:13.610Z,12.38
2022-11-08T02:39:13.607Z,12.33
2022-11-08T02:40:13.594Z,12.41
2022-11-08T02:41:13.602Z,12.39
2022-11-08T02:42:13.581Z,12.41
2022-11-08T02:43:13.566Z,12.42
2022-11-08T02:44:13.550Z,12.38
2022-11-08T02:45:13.594Z,12.39
2022-11-08T02:46:13.530Z,12.37
2022-11-08T02:47:13.529Z,12.41
2022-11-08T02:48:13.506Z,12.39
2022-11-08T02:49:13.496Z,12.38
2022-11-08T02:50:13.486Z,12.38
2022-11-08T02:51:13.477Z,12.42
2022-11-08T02:52:13.474Z,12.42
2022-11-08T02:53:13.457Z,12.44
2022-11-08T02:54:13.457Z,12.37
2022-11-08T02:55:13.508Z,12.37
2022-11-08T02:56:13.434Z,12.39
2022-11-08T02:57:13.438Z,12.39
2022-11-08T02:58:13.398Z,12.38
2022-11-08T02:59:13.393Z,12.37
2022-11-08T03:00:13.377Z,12.44
2022-11-08T03:01:13.365Z,12.38
2022-11-08T03:02:13.562Z,12.42
2022-11-08T03:03:13.348Z,12.39
2022-11-08T03:04:13.331Z,12.38
2022-11-08T03:05:13.327Z,12.39
2022-11-08T03:06:13.310Z,12.39
2022-11-08T03:07:13.317Z,12.41
2022-11-08T03:08:13.289Z,12.38
2022-11-08T03:09:13.283Z,12.37
2022-11-08T03:10:13.266Z,12.41
2022-11-08T03:11:13.261Z,12.38
2022-11-08T03:12:13.261Z,12.38
2022-11-08T03:13:13.258Z,12.34
2022-11-08T03:14:13.237Z,12.33
2022-11-08T03:15:13.218Z,12.27
2022-11-08T03:16:13.203Z,12.37
2022-11-08T03:17:13.210Z,12.30
2022-11-08T03:18:13.194Z,12.34
2022-11-08T03:19:13.177Z,12.34
2022-11-08T03:20:13.161Z,12.33
2022-11-08T03:21:13.161Z,12.24
2022-11-08T03:22:13.151Z,12.31
2022-11-08T03:23:13.131Z,12.29
2022-11-08T03:24:13.120Z,12.31
2022-11-08T03:25:13.107Z,12.34
2022-11-08T03:26:13.094Z,12.30
2022-11-08T03:27:13.107Z,12.37
2022-11-08T03:28:13.075Z,12.29
2022-11-08T03:29:13.084Z,12.33
2022-11-08T03:30:13.055Z,12.31
2022-11-08T03:31:13.056Z,12.39
2022-11-08T03:32:13.047Z,12.33
2022-11-08T03:33:13.021Z,12.34
2022-11-08T03:34:13.009Z,12.42
2022-11-08T03:35:13.001Z,12.42
2022-11-08T03:36:12.989Z,12.42
2022-11-08T03:37:12.997Z,12.38
2022-11-08T03:38:12.968Z,12.34
2022-11-08T03:39:12.959Z,12.42
2022-11-08T03:40:12.946Z,12.42
2022-11-08T03:41:12.935Z,12.41
2022-11-08T03:42:12.937Z,12.44
2022-11-08T03:43:12.916Z,12.44
2022-11-08T03:44:12.903Z,12.41
2022-11-08T03:45:12.910Z,12.42
2022-11-08T03:46:12.883Z,12.42
2022-11-08T03:47:12.887Z,12.44
2022-11-08T03:48:12.858Z,12.44
2022-11-08T03:49:12.869Z,12.41
2022-11-08T03:50:12.837Z,12.38
2022-11-08T03:51:12.841Z,12.39
2022-11-08T03:52:12.818Z,12.38
2022-11-08T03:53:12.813Z,12.45
2022-11-08T03:54:12.796Z,12.37
2022-11-08T03:55:12.793Z,12.38
2022-11-08T03:56:12.785Z,12.33
2022-11-08T03:57:12.765Z,12.33
2022-11-08T03:58:12.752Z,12.31
2022-11-08T03:59:12.741Z,12.31
2022-11-08T04:00:12.732Z,12.26
2022-11-08T04:01:12.908Z,12.27
2022-11-08T04:02:12.910Z,12.20
2022-11-08T04:03:12.706Z,12.13
2022-11-08T04:04:12.685Z,12.19
2022-11-08T04:05:12.678Z,12.12
2022-11-08T04:06:12.680Z,12.19
2022-11-08T04:07:12.657Z,12.15
2022-11-08T04:08:12.647Z,12.16
2022-11-08T04:09:12.784Z,12.11
2022-11-08T04:10:12.623Z,12.08
2022-11-08T04:11:12.630Z,12.11
2022-11-08T04:12:12.614Z,12.01
2022-11-08T04:13:12.592Z,11.97
2022-11-08T04:14:12.595Z,12.04
2022-11-08T04:15:12.572Z,12.01
2022-11-08T04:16:17.581Z,11.99
2022-11-08T04:17:13.567Z,11.99
2022-11-08T04:18:12.540Z,11.94
2022-11-08T04:19:12.527Z,11.94
2022-11-08T04:20:12.523Z,12.01
2022-11-08T04:21:12.522Z,11.96
2022-11-08T04:22:12.494Z,11.96
2022-11-08T04:23:12.484Z,11.83
2022-11-08T04:24:12.473Z,11.89
2022-11-08T04:25:12.463Z,11.83
2022-11-08T04:26:12.467Z,11.83
2022-11-08T04:27:12.438Z,11.82
2022-11-08T04:28:12.433Z,11.82
2022-11-08T04:29:12.420Z,11.80
2022-11-08T04:30:12.413Z,11.75
2022-11-08T04:31:12.425Z,11.74
2022-11-08T04:32:12.389Z,11.77
2022-11-08T04:33:12.393Z,11.77
2022-11-08T04:34:12.365Z,11.80
2022-11-08T04:35:12.354Z,11.77
2022-11-08T04:36:12.358Z,11.74
2022-11-08T04:37:12.334Z,11.74
2022-11-08T04:38:12.328Z,11.70
2022-11-08T04:39:12.313Z,11.72
2022-11-08T04:40:12.312Z,11.72
2022-11-08T04:41:12.303Z,11.70
2022-11-08T04:42:12.282Z,11.68
2022-11-08T04:43:12.271Z,11.67
2022-11-08T04:44:12.261Z,11.72
2022-11-08T04:45:12.246Z,11.72
2022-11-08T04:46:12.286Z,11.64
2022-11-08T04:47:12.227Z,11.67
2022-11-08T04:48:12.218Z,11.62
2022-11-08T04:49:12.220Z,11.67
2022-11-08T04:50:12.197Z,11.67
2022-11-08T04:51:12.202Z,11.59
2022-11-08T04:52:12.173Z,11.62
2022-11-08T04:53:12.174Z,11.57
2022-11-08T04:54:12.151Z,11.54
2022-11-08T04:55:12.138Z,11.54
2022-11-08T04:56:12.144Z,11.50
2022-11-08T04:57:12.119Z,11.52
2022-11-08T04:58:12.127Z,11.54
2022-11-08T04:59:12.482Z,11.50
2022-11-08T05:00:12.093Z,11.57
2022-11-08T05:01:12.157Z,11.52
2022-11-08T05:02:12.191Z,11.46
2022-11-08T05:03:12.055Z,11.44
2022-11-08T05:04:12.048Z,11.57
2022-11-08T05:05:12.050Z,11.44
2022-11-08T05:06:12.044Z,11.56
2022-11-08T05:07:12.015Z,11.44
2022-11-08T05:08:12.003Z,11.49
2022-11-08T05:09:11.988Z,11.47
2022-11-08T05:10:11.981Z,11.38
2022-11-08T05:11:11.986Z,11.41
2022-11-08T05:12:11.956Z,11.39
2022-11-08T05:13:11.947Z,11.46
2022-11-08T05:14:11.993Z,11.49
2022-11-08T05:15:11.927Z,11.44
2022-11-08T05:16:11.944Z,11.47
2022-11-08T05:17:11.903Z,11.39
2022-11-08T05:18:11.891Z,11.35
2022-11-08T05:19:13.334Z,11.36
2022-11-08T05:20:11.869Z,11.38
2022-11-08T05:21:12.002Z,11.41
2022-11-08T05:22:11.857Z,11.41
2022-11-08T05:23:11.840Z,11.36
2022-11-08T05:24:11.831Z,11.36
2022-11-08T05:25:11.820Z,11.29
2022-11-08T05:26:11.826Z,11.34
2022-11-08T05:27:11.794Z,11.34
2022-11-08T05:28:11.790Z,11.35
2022-11-08T05:29:11.774Z,11.24
2022-11-08T05:30:11.782Z,11.20
2022-11-08T05:31:11.780Z,11.29
2022-11-08T05:32:11.770Z,11.29
2022-11-08T05:33:11.729Z,11.29
2022-11-08T05:34:11.722Z,11.31
2022-11-08T05:35:11.706Z,11.25
2022-11-08T05:36:11.725Z,11.29
2022-11-08T05:37:11.725Z,11.31
2022-11-08T05:38:11.678Z,11.25
2022-11-08T05:39:11.701Z,11.27
2022-11-08T05:40:11.773Z,11.27
2022-11-08T05:41:11.666Z,11.28
2022-11-08T05:42:11.639Z,11.27
2022-11-08T05:43:11.619Z,11.24
2022-11-08T05:44:11.609Z,11.29
2022-11-08T05:45:11.669Z,11.27
2022-11-08T05:46:11.616Z,11.24
2022-11-08T05:47:11.582Z,11.25
2022-11-08T05:48:11.613Z,11.17
2022-11-08T05:49:11.579Z,11.20
2022-11-08T05:50:15.509Z,11.11
2022-11-08T05:51:12.570Z,11.19
2022-11-08T05:52:11.524Z,11.16
2022-11-08T05:53:11.528Z,11.09
2022-11-08T05:54:11.503Z,11.17
2022-11-08T05:55:11.491Z,11.14
2022-11-08T05:56:11.497Z,11.14
2022-11-08T05:57:11.471Z,11.19
2022-11-08T05:58:11.465Z,11.16
2022-11-08T05:59:11.452Z,11.21
2022-11-08T06:00:11.437Z,11.27
2022-11-08T06:01:11.439Z,11.27
2022-11-08T06:02:11.503Z,11.21
2022-11-08T06:03:11.455Z,11.20
2022-11-08T06:04:11.453Z,11.13
2022-11-08T06:05:11.385Z,11.24
2022-11-08T06:06:11.433Z,11.14
2022-11-08T06:07:11.389Z,11.13
2022-11-08T06:08:11.373Z,11.13
2022-11-08T06:09:11.380Z,11.17
2022-11-08T06:10:11.330Z,11.13
2022-11-08T06:11:11.389Z,11.13
2022-11-08T06:12:11.309Z,11.07
2022-11-08T06:13:11.300Z,11.09
2022-11-08T06:14:11.292Z,11.11
2022-11-08T06:15:11.274Z,11.11
2022-11-08T06:16:11.282Z,11.11
2022-11-08T06:17:11.252Z,11.07
2022-11-08T06:18:11.243Z,11.11
2022-11-08T06:19:11.235Z,11.03
2022-11-08T06:20:11.227Z,11.20
2022-11-08T06:21:11.250Z,11.14
2022-11-08T06:22:11.205Z,11.16
2022-11-08T06:23:11.207Z,11.11
2022-11-08T06:24:11.177Z,11.14
2022-11-08T06:25:11.184Z,11.25
2022-11-08T06:26:11.173Z,11.29
2022-11-08T06:27:11.149Z,11.28
2022-11-08T06:28:11.143Z,11.31
2022-11-08T06:29:11.148Z,11.32
2022-11-08T06:30:11.112Z,11.49
2022-11-08T06:31:11.114Z,11.39
2022-11-08T06:32:11.091Z,11.41
2022-11-08T06:33:11.078Z,11.54
2022-11-08T06:34:11.073Z,11.49
2022-11-08T06:35:11.059Z,11.53
2022-11-08T06:36:11.086Z,11.53
2022-11-08T06:37:11.040Z,11.54
2022-11-08T06:38:11.028Z,11.56
2022-11-08T06:39:11.015Z,11.57
2022-11-08T06:40:11.009Z,11.62
2022-11-08T06:41:11.025Z,11.74
2022-11-08T06:42:10.980Z,11.74
2022-11-08T06:43:14.938Z,11.75
2022-11-08T06:44:11.964Z,11.77
2022-11-08T06:45:10.952Z,11.77
2022-11-08T06:46:10.948Z,11.93
2022-11-08T06:47:10.930Z,11.85
2022-11-08T06:48:10.918Z,11.77
2022-11-08T06:49:10.906Z,11.83
2022-11-08T06:50:10.902Z,11.77
2022-11-08T06:51:10.892Z,11.72
2022-11-08T06:52:10.878Z,11.75
2022-11-08T06:53:10.862Z,11.77
2022-11-08T06:54:14.240Z,11.83
2022-11-08T06:55:11.842Z,11.89
2022-11-08T06:56:10.844Z,11.89
2022-11-08T06:57:10.836Z,11.87
2022-11-08T06:58:10.819Z,11.82
2022-11-08T06:59:10.799Z,11.96
2022-11-08T07:00:10.790Z,11.85
2022-11-08T07:01:10.969Z,11.78
2022-11-08T07:02:10.871Z,11.87
2022-11-08T07:03:10.861Z,11.96
2022-11-08T07:04:10.759Z,11.93
2022-11-08T07:05:10.734Z,11.94
2022-11-08T07:06:10.736Z,12.02
2022-11-08T07:07:10.712Z,11.96
2022-11-08T07:08:10.704Z,12.06
2022-11-08T07:09:10.691Z,12.19
2022-11-08T07:10:10.682Z,12.42
2022-11-08T07:11:10.681Z,12.57
2022-11-08T07:12:10.659Z,12.78
2022-11-08T07:13:10.666Z,13.03
2022-11-08T07:14:10.639Z,13.21
2022-11-08T07:15:10.636Z,13.40
2022-11-08T07:16:10.618Z,13.59
2022-11-08T07:17:10.607Z,13.83
2022-11-08T07:18:10.631Z,13.94
2022-11-08T07:19:10.589Z,13.92
2022-11-08T07:20:10.590Z,14.10
2022-11-08T07:21:10.581Z,14.35
2022-11-08T07:22:10.550Z,14.65
2022-11-08T07:23:10.586Z,14.75
2022-11-08T07:24:10.589Z,14.72
2022-11-08T07:25:10.533Z,14.95
2022-11-08T07:26:10.507Z,15.08
2022-11-08T07:27:10.495Z,15.42
2022-11-08T07:28:10.487Z,15.61
2022-11-08T07:29:15.648Z,15.97
2022-11-08T07:30:11.477Z,16.26
2022-11-08T07:31:10.451Z,16.62
2022-11-08T07:32:10.450Z,16.86
2022-11-08T07:33:10.428Z,16.96
2022-11-08T07:34:10.422Z,17.08
2022-11-08T07:35:10.428Z,17.30
2022-11-08T07:36:10.418Z,17.71
2022-11-08T07:37:10.385Z,17.74
2022-11-08T07:38:10.381Z,17.92
2022-11-08T07:39:10.372Z,17.89
2022-11-08T07:40:10.376Z,17.95
2022-11-08T07:41:10.365Z,18.00
2022-11-08T07:42:10.345Z,17.89
2022-11-08T07:43:12.276Z,17.99
2022-11-08T07:44:10.324Z,17.97
2022-11-08T07:45:10.330Z,18.27
2022-11-08T07:46:10.288Z,18.59
2022-11-08T07:47:10.275Z,18.76
2022-11-08T07:48:12.435Z,18.83
2022-11-08T07:49:10.256Z,18.65
2022-11-08T07:50:10.259Z,18.70
2022-11-08T07:51:10.236Z,18.70
2022-11-08T07:52:10.234Z,18.50
2022-11-08T07:53:10.251Z,18.33
2022-11-08T07:54:10.206Z,18.29
2022-11-08T07:55:10.231Z,18.57
2022-11-08T07:56:10.184Z,18.79
2022-11-08T07:57:10.170Z,18.99
2022-11-08T07:58:10.244Z,18.92
2022-11-08T07:59:10.164Z,18.92
2022-11-08T08:00:10.141Z,18.94
2022-11-08T08:01:10.144Z,19.10
2022-11-08T08:02:10.169Z,19.20
2022-11-08T08:03:10.225Z,19.33
2022-11-08T08:04:10.112Z,19.39
2022-11-08T08:05:10.083Z,19.39
2022-11-08T08:06:10.161Z,19.05
2022-11-08T08:07:10.063Z,18.72
2022-11-08T08:08:10.070Z,18.57
2022-11-08T08:09:10.061Z,18.46
2022-11-08T08:10:10.036Z,18.33
2022-11-08T08:11:10.056Z,18.39
2022-11-08T08:12:10.015Z,18.24
2022-11-08T08:13:10.000Z,18.28
2022-11-08T08:14:10.170Z,18.29
2022-11-08T08:15:09.977Z,18.37
2022-11-08T08:16:09.976Z,18.21
2022-11-08T08:17:09.993Z,17.88
2022-11-08T08:18:09.949Z,17.62
2022-11-08T08:19:09.948Z,17.54
2022-11-08T08:20:09.926Z,17.54
2022-11-08T08:21:09.918Z,17.43
2022-11-08T08:22:09.904Z,17.59
2022-11-08T08:23:09.893Z,17.71
2022-11-08T08:24:09.903Z,17.67
2022-11-08T08:25:09.877Z,17.69
2022-11-08T08:26:09.866Z,17.76
2022-11-08T08:27:09.855Z,17.63
2022-11-08T08:28:09.838Z,17.38
2022-11-08T08:29:09.830Z,17.22
2022-11-08T08:30:09.825Z,17.17
2022-11-08T08:31:09.816Z,17.29
2022-11-08T08:32:09.796Z,17.46
2022-11-08T08:34:10.794Z,17.06
2022-11-08T08:35:09.771Z,17.03
2022-11-08T08:36:09.753Z,17.07
2022-11-08T08:37:09.746Z,17.18
2022-11-08T08:38:09.734Z,17.33
2022-11-08T08:39:09.733Z,17.54
2022-11-08T08:40:09.707Z,17.46
2022-11-08T08:41:09.700Z,17.46
2022-11-08T08:42:09.699Z,17.46
2022-11-08T08:43:09.687Z,17.59
2022-11-08T08:44:09.679Z,17.57
2022-11-08T08:45:14.650Z,17.50
2022-11-08T08:46:10.646Z,17.41
2022-11-08T08:47:09.635Z,17.57
2022-11-08T08:48:09.628Z,17.73
2022-11-08T08:49:09.709Z,17.84
2022-11-08T08:50:09.599Z,17.84
2022-11-08T08:51:09.590Z,17.87
2022-11-08T08:52:09.580Z,17.95
2022-11-08T08:53:09.568Z,18.15
2022-11-08T08:54:09.567Z,18.28
2022-11-08T08:55:09.549Z,18.59
2022-11-08T08:56:09.536Z,18.84
2022-11-08T08:57:09.525Z,19.05
2022-11-08T08:58:09.539Z,18.94
2022-11-08T09:02:10.467Z,18.58
2022-11-08T09:03:09.464Z,18.52
2022-11-08T09:04:09.465Z,18.67
2022-11-08T09:05:09.549Z,18.90
2022-11-08T09:06:09.427Z,18.97
2022-11-08T09:07:09.520Z,18.92
2022-11-08T09:08:09.408Z,19.08
2022-11-08T09:09:09.404Z,19.29
2022-11-08T09:10:09.385Z,19.40
2022-11-08T09:11:09.375Z,19.46
2022-11-08T09:12:13.427Z,19.63
2022-11-08T09:13:10.352Z,19.90
2022-11-08T09:14:09.358Z,20.13
2022-11-08T09:15:09.332Z,20.15
2022-11-08T09:16:09.322Z,20.13
2022-11-08T09:17:09.318Z,20.13
2022-11-08T09:18:09.378Z,20.13
2022-11-08T09:19:09.306Z,20.24
2022-11-08T09:20:09.277Z,20.35
2022-11-08T09:21:09.286Z,20.43
2022-11-08T09:22:09.345Z,20.59
2022-11-08T09:23:09.247Z,20.90
2022-11-08T09:24:09.249Z,21.20
2022-11-08T09:25:09.231Z,21.51
2022-11-08T09:26:09.220Z,21.56
2022-11-08T09:27:09.207Z,21.92
2022-11-08T09:28:09.197Z,21.71
2022-11-08T09:29:09.195Z,21.69
2022-11-08T09:30:09.181Z,21.39
2022-11-08T09:31:09.233Z,21.21
2022-11-08T09:32:09.153Z,21.35
2022-11-08T09:33:09.182Z,21.27
2022-11-08T09:34:09.149Z,21.34
2022-11-08T09:35:09.129Z,21.17
2022-11-08T09:36:09.144Z,21.41
2022-11-08T09:37:09.123Z,21.59
2022-11-08T09:38:09.091Z,21.42
2022-11-08T09:39:09.095Z,21.14
2022-11-08T09:40:09.101Z,20.74
2022-11-08T09:41:09.064Z,20.59
2022-11-08T09:42:09.056Z,20.38
2022-11-08T09:43:09.052Z,20.47
2022-11-08T09:44:09.047Z,20.58
2022-11-08T09:45:09.021Z,20.79
2022-11-08T09:46:09.012Z,21.36
2022-11-08T09:47:09.001Z,21.59
2022-11-08T09:48:08.987Z,21.63
2022-11-08T09:49:08.987Z,21.63
2022-11-08T09:50:08.966Z,21.91
2022-11-08T09:51:08.970Z,21.79
2022-11-08T09:52:08.951Z,21.78
2022-11-08T09:53:08.959Z,21.90
2022-11-08T09:54:08.937Z,21.81
2022-11-08T09:55:08.934Z,21.39
2022-11-08T09:56:08.915Z,21.48
2022-11-08T09:57:08.898Z,21.41
2022-11-08T09:58:08.894Z,21.30
2022-11-08T09:59:08.897Z,21.20
2022-11-08T10:00:08.868Z,21.36
2022-11-08T10:01:08.862Z,21.63
2022-11-08T10:02:08.946Z,21.59
2022-11-08T10:03:08.837Z,21.66
2022-11-08T10:04:08.841Z,21.48
2022-11-08T10:05:08.822Z,21.60
2022-11-08T10:06:08.807Z,22.01
2022-11-08T10:07:08.850Z,21.98
2022-11-08T10:08:08.789Z,21.92
2022-11-08T10:09:08.807Z,21.99
2022-11-08T10:10:08.774Z,22.10
2022-11-08T10:11:08.775Z,22.43
2022-11-08T10:12:08.752Z,22.19
2022-11-08T10:13:08.744Z,22.09
2022-11-08T10:14:08.822Z,21.83
2022-11-08T10:15:08.720Z,21.26
2022-11-08T10:16:08.760Z,20.59
2022-11-08T10:17:08.727Z,20.23
2022-11-08T10:18:08.690Z,19.90
2022-11-08T10:19:08.698Z,19.72
2022-11-08T10:20:08.671Z,19.39
2022-11-08T10:21:08.663Z,19.20
2022-11-08T10:22:08.652Z,19.01
2022-11-08T10:23:08.643Z,18.83
2022-11-08T10:24:08.645Z,18.76
2022-11-08T10:25:08.646Z,18.59
2022-11-08T10:26:08.606Z,18.54
2022-11-08T10:27:08.600Z,18.58
2022-11-08T10:28:08.584Z,18.47
2022-11-08T10:29:08.595Z,18.42
2022-11-08T10:30:08.564Z,18.31
2022-11-08T10:31:08.556Z,18.25
2022-11-08T10:32:08.542Z,18.24
2022-11-08T10:33:08.540Z,18.21
2022-11-08T10:34:08.543Z,18.31
2022-11-08T10:35:08.559Z,18.25
2022-11-08T10:36:08.502Z,18.24
2022-11-08T10:37:08.519Z,18.21
2022-11-08T10:38:08.486Z,18.06
2022-11-08T10:39:08.489Z,17.97
2022-11-08T10:40:08.478Z,17.99
2022-11-08T10:41:08.465Z,18.10
2022-11-08T10:42:08.437Z,18.02
2022-11-08T10:43:09.604Z,17.85
2022-11-08T10:44:08.506Z,17.73
2022-11-08T10:45:08.821Z,17.64
2022-11-08T10:46:08.400Z,17.59
2022-11-08T10:47:08.386Z,17.54
2022-11-08T10:48:08.372Z,17.36
2022-11-08T10:49:08.417Z,17.41
2022-11-08T10:50:08.368Z,17.35
2022-11-08T10:51:08.348Z,17.33
2022-11-08T10:52:08.329Z,17.30
2022-11-08T10:53:08.327Z,17.33
2022-11-08T10:54:08.324Z,17.35
2022-11-08T10:55:08.297Z,17.29
2022-11-08T10:56:08.288Z,17.18
2022-11-08T10:57:08.314Z,17.15
2022-11-08T10:58:08.265Z,17.08
2022-11-08T10:59:08.279Z,17.00
2022-11-08T11:00:08.257Z,17.15
2022-11-08T11:01:08.233Z,17.14
2022-11-08T11:02:08.266Z,17.22
2022-11-08T11:03:08.214Z,17.23
2022-11-08T11:04:08.212Z,17.23
2022-11-08T11:05:08.488Z,17.15
2022-11-08T11:06:08.182Z,17.04
2022-11-08T11:07:08.265Z,17.17
2022-11-08T11:08:08.157Z,17.06
2022-11-08T11:09:08.165Z,17.06
2022-11-08T11:10:08.133Z,17.04
2022-11-08T11:11:08.135Z,16.98
2022-11-08T11:12:08.113Z,16.98
2022-11-08T11:13:08.126Z,17.00
2022-11-08T11:14:08.110Z,16.98
2022-11-08T11:15:08.084Z,16.88
2022-11-08T11:16:08.076Z,16.92
2022-11-08T11:17:08.070Z,16.80
2022-11-08T11:18:08.049Z,16.81
2022-11-08T11:19:08.085Z,16.73
2022-11-08T11:20:08.027Z,16.67
2022-11-08T11:21:08.020Z,16.73
2022-11-08T11:22:08.018Z,16.75
2022-11-08T11:23:08.005Z,16.90
2022-11-08T11:24:08.008Z,16.92
2022-11-08T11:25:07.989Z,16.95
2022-11-08T11:26:07.967Z,16.90
2022-11-08T11:27:07.967Z,16.92
2022-11-08T11:28:08.062Z,16.90
2022-11-08T11:29:07.978Z,16.90
2022-11-08T11:30:11.626Z,16.89
2022-11-08T11:31:07.924Z,16.81
2022-11-08T11:32:07.896Z,16.83
2022-11-08T11:33:07.966Z,16.78
2022-11-08T11:34:07.991Z,16.86
2022-11-08T11:35:08.045Z,16.80
2022-11-08T11:36:12.210Z,16.77
2022-11-08T11:37:08.847Z,16.81
2022-11-08T11:38:07.838Z,16.78
2022-11-08T11:39:07.840Z,16.80
2022-11-08T11:40:07.829Z,16.77
2022-11-08T11:41:10.929Z,16.80
2022-11-08T11:42:31.236Z,16.85
2022-11-08T11:43:08.779Z,16.92
2022-11-08T11:44:07.782Z,16.78
2022-11-08T11:45:07.780Z,16.80
2022-11-08T11:46:07.997Z,16.77
2022-11-08T11:47:07.740Z,16.75
2022-11-08T11:48:07.726Z,16.80
2022-11-08T11:49:07.810Z,16.77
2022-11-08T11:50:07.701Z,16.83
2022-11-08T11:51:07.734Z,16.78
2022-11-08T11:52:07.682Z,16.71
2022-11-08T11:53:07.673Z,16.75
2022-11-08T11:54:07.682Z,16.77
2022-11-08T11:55:07.652Z,16.70
2022-11-08T11:56:07.947Z,16.78
2022-11-08T11:57:07.639Z,16.71
2022-11-08T11:58:07.614Z,16.73
2022-11-08T11:59:07.627Z,16.63
2022-11-08T12:00:07.710Z,16.67
2022-11-08T12:01:13.153Z,16.59
2022-11-08T12:02:08.630Z,16.62
2022-11-08T12:03:07.574Z,16.71
2022-11-08T12:04:07.557Z,16.73
2022-11-08T12:05:07.541Z,16.75
2022-11-08T12:06:07.529Z,16.77
2022-11-08T12:07:07.577Z,16.78
2022-11-08T12:08:07.507Z,16.83
2022-11-08T12:09:07.507Z,16.86
2022-11-08T12:10:07.529Z,16.86
2022-11-08T12:11:07.473Z,16.86
2022-11-08T12:12:07.463Z,16.85
2022-11-08T12:13:07.465Z,16.90
2022-11-08T12:14:07.445Z,16.86
2022-11-08T12:15:07.431Z,16.90
2022-11-08T12:16:07.417Z,16.89
2022-11-08T12:17:07.528Z,16.81
2022-11-08T12:18:07.412Z,16.90
2022-11-08T12:19:07.394Z,16.86
2022-11-08T12:20:07.381Z,16.78
2022-11-08T12:21:07.370Z,16.78
2022-11-08T12:22:07.355Z,16.81
2022-11-08T12:23:07.360Z,16.78
2022-11-08T12:24:07.333Z,16.86
2022-11-08T12:25:07.326Z,16.80
2022-11-08T12:26:07.315Z,16.92
2022-11-08T12:27:07.300Z,16.88
2022-11-08T12:28:07.298Z,16.96
2022-11-08T12:29:07.288Z,16.96
2022-11-08T12:30:07.280Z,16.98
2022-11-08T12:31:07.260Z,16.93
2022-11-08T12:32:07.245Z,17.00
2022-11-08T12:33:07.305Z,16.95
2022-11-08T12:34:07.225Z,17.04
2022-11-08T12:35:07.217Z,16.99
2022-11-08T12:36:07.206Z,17.00
2022-11-08T12:37:07.204Z,16.99
2022-11-08T12:38:07.211Z,17.00
2022-11-08T12:39:07.167Z,16.98
2022-11-08T12:40:07.156Z,16.90
2022-11-08T12:41:07.150Z,16.99
2022-11-08T12:42:07.140Z,16.90
2022-11-08T12:43:07.171Z,16.93
2022-11-08T12:44:07.115Z,16.92
2022-11-08T12:45:07.105Z,16.99
2022-11-08T12:46:07.099Z,16.92
2022-11-08T12:47:07.085Z,16.98
2022-11-08T12:48:07.090Z,16.96
2022-11-08T12:49:07.075Z,16.95
2022-11-08T12:50:07.053Z,17.04
2022-11-08T12:51:07.036Z,17.03
2022-11-08T12:52:07.029Z,17.04
2022-11-08T12:53:07.029Z,16.99
2022-11-08T12:54:07.028Z,16.99
2022-11-08T12:55:06.995Z,16.99
2022-11-08T12:56:06.986Z,16.96
2022-11-08T12:57:06.974Z,16.90